Fairview, New Mexico
Current Conditions -  °F | °C
As of 3:35 AM on Thursday 23 Oct 2014 (Local Time) from KLAM Reporting Station
Clear Clear  
Wind Chill: 52°   Ceiling: Unl
Heat Index: 52°   Visibility: 10mi
Dew Point: 32°   Wind: 9mph
Humidity: 46%   Direction: 270°W
Pressure: 30.29"   Gusts: NA
Location:  36.0007°N, 106.072°W
Report Text: KLAM 230935Z AUTO 27008KT 10SM CLR 11/00 A3029 RMK AO2 T01120000
Loading
Personal Weather Stations






























Interactive Weather Map
Tropical Storm Tracking
New forecast layout! Learn more

10-Day Weather Forecast

Advertisements
Track Severe Weather on mobile